Terminal Aerodrome Forecast
Issued by NWS

Home | Current Version | Previous Version | Text Only | Print | Product List | Glossary On
Versions: 1 2 3 4 5 6 7 8 9 10 11 12 13 14 15 16 17 18 19 20 21 22 23 24 25 26 27 28 29 30 31 32 33 34 35 36
000
FTAK31 PAFA 220844 AAA
TAFAUN
TAF AMD
PAUN 220844Z 2209/2306 20014KT P6SM -RA BKN008 BKN027 OVC030
     FM221200 26015G21KT 5SM -RA BR OVC010
     FM222200 30010G16KT P6SM SCT010 BKN025=

USA.gov is the U.S. government's official web portal to all federal, state and local government web resources and services.